Austin Municipal Airport

About
Name: Austin Municipal Airport
Identifier:  AUM/KAUM
Serves:  Austin, MN
Owner:  City of Austin
Public/Private:  Public
Local Time:  23. Aug 00:07 CDT
Description: Austin Municipal Airport is a public owned public use airport located two nautical mile east of the central business district of the city of Austin, in Mower County, Minnesota, United States.
Source: Wikipedia
Location
Runways
Identifier Length (m/ft) Surface
17/35 5,800/5,800 Concrete
Flights per Day
0 flights
Distance: 313km (194mi)
Punctuality
0% (0 flights per day delayed)
Delay Average: 37 minutes
Current Weather
 14 C (Humidity: 76%)
  0kt (0km/h / 0mph) from 0°
  16km (10 mi.)
 
 METAR KAUM 230455Z AUTO 00000KT 10SM CLR 14/10 A3013 RMK AO2

Current Flights

Departures
Number Departure To Airline
Arrivals
Number Arrival From Airline

Current Delays

Departures
N/A
Arrivals
N/A

Destinations

Top Destinations
Airport Flights
per week
Seats
per week
  Alexandria (AXN) 1 - 0 0
  Terre Haute (HUF) 0 - 0 0
  Minneapolis (FCM) 0 - 0 0
  Hawthorne (HHR) 0 - 0 0

Airlines & Planes

Top Airlines
Airline Flights
per Day
Seats
per Day
  Nolinor Aviation 0 -
Jet Linx Aviation 0 -
Nordwind Airlines 0 -
Top Plane Types
Model Flights Seats
Cessna C182 0.2/day - 0
Cessna C56X 0.0/day - 0
Beech G36 Bonanza 0.0/day - 0